Time;durP1;ratioP1;P1;durP2;ratioP2;P2;SDS_P1;SDS_P2;PMS_P1;PMS_P2;Temp;Humidity;BMP_temperature;BMP_pressure;BME280_temperature;BME280_humidity;BME280_pressure;Samples;Min_cycle;Max_cycle;Signal;HPM_P1;HPM_P2
2024/01/12 00:02:18;;;;;;;25.60;18.55;;;;;;;-2.16;100.00;103042.81;10023534;29;20609;-69
2024/01/12 00:07:15;;;;;;;25.05;19.35;;;;;;;-2.10;100.00;103041.28;10029887;29;20132;-70
2024/01/12 00:12:11;;;;;;;31.83;20.83;;;;;;;-2.24;100.00;103042.88;10035349;29;20058;-69
2024/01/12 00:17:08;;;;;;;25.88;20.00;;;;;;;-2.29;100.00;103048.75;10029046;29;20091;-71
2024/01/12 00:22:04;;;;;;;25.55;19.33;;;;;;;-2.36;100.00;103053.97;10037452;29;20075;-70
2024/01/12 00:27:01;;;;;;;22.38;19.90;;;;;;;-2.35;100.00;103055.63;10043575;29;20405;-72
2024/01/12 00:31:57;;;;;;;22.73;20.42;;;;;;;-2.25;100.00;103043.84;10030342;29;20255;-69
2024/01/12 00:36:54;;;;;;;26.25;20.88;;;;;;;-2.38;100.00;103053.31;10038263;29;20057;-67
2024/01/12 00:41:52;;;;;;;21.80;19.60;;;;;;;-2.41;100.00;103050.97;10037867;29;20519;-69
2024/01/12 00:46:50;;;;;;;23.13;19.38;;;;;;;-2.45;100.00;103044.28;10036969;29;20086;-69
2024/01/12 00:51:48;;;;;;;21.38;19.17;;;;;;;-2.57;100.00;103045.69;10040542;28;20048;-71
2024/01/12 00:56:44;;;;;;;22.17;19.88;;;;;;;-2.55;100.00;103049.03;10040859;29;20048;-70
2024/01/12 01:01:41;;;;;;;24.17;19.25;;;;;;;-2.57;100.00;103048.38;10027330;29;20052;-70
2024/01/12 01:06:37;;;;;;;22.45;19.73;;;;;;;-2.52;100.00;103047.84;10044286;29;20062;-71
2024/01/12 01:11:34;;;;;;;22.55;19.90;;;;;;;-2.61;100.00;103044.34;10028683;29;20094;-67
2024/01/12 01:16:30;;;;;;;24.67;19.88;;;;;;;-2.61;100.00;103055.91;10035226;29;20043;-68
2024/01/12 01:21:27;;;;;;;22.08;19.88;;;;;;;-2.55;100.00;103055.22;10038342;29;20051;-70
2024/01/12 01:26:23;;;;;;;24.20;20.85;;;;;;;-2.59;100.00;103058.41;10037291;28;20344;-71
2024/01/12 01:31:20;;;;;;;23.40;20.88;;;;;;;-2.47;100.00;103050.84;10029398;29;20055;-70
2024/01/12 01:36:16;;;;;;;21.85;19.35;;;;;;;-2.56;100.00;103052.72;10035714;29;20051;-70
2024/01/12 01:41:13;;;;;;;29.38;21.33;;;;;;;-2.64;100.00;103050.06;10033365;29;20047;-68
2024/01/12 01:46:09;;;;;;;26.83;21.67;;;;;;;-2.70;100.00;103046.22;10029220;29;20059;-69
2024/01/12 01:51:06;;;;;;;23.02;20.27;;;;;;;-2.56;100.00;103039.31;10035923;29;20047;-71
2024/01/12 01:56:03;;;;;;;21.13;19.02;;;;;;;-2.67;100.00;103050.41;10034239;29;20079;-70
2024/01/12 02:01:01;;;;;;;24.33;20.02;;;;;;;-2.70;100.00;103048.91;10044066;29;20420;-70
2024/01/12 02:05:57;;;;;;;21.63;19.38;;;;;;;-2.64;100.00;103036.69;10045186;28;20047;-69
2024/01/12 02:10:55;;;;;;;21.88;19.67;;;;;;;-2.62;100.00;103032.81;10044324;29;20075;-69
2024/01/12 02:15:52;;;;;;;25.35;19.83;;;;;;;-2.64;100.00;103029.47;10039294;29;20207;-71
2024/01/12 02:20:55;;;;;;;22.92;19.00;;;;;;;-2.55;100.00;103032.97;10036921;29;20052;-69
2024/01/12 02:25:51;;;;;;;21.30;19.05;;;;;;;-2.43;100.00;103031.56;10046024;29;20052;-70
2024/01/12 02:30:48;;;;;;;22.90;20.45;;;;;;;-2.27;100.00;103045.91;10047840;29;20120;-71
2024/01/12 02:35:45;;;;;;;26.67;20.38;;;;;;;-2.15;100.00;103039.13;10039336;29;20470;-70
2024/01/12 02:40:41;;;;;;;39.63;19.25;;;;;;;-2.17;100.00;103039.31;10041435;29;20127;-70
2024/01/12 02:45:38;;;;;;;23.25;19.63;;;;;;;-2.23;100.00;103041.84;10045815;29;20495;-69
2024/01/12 02:50:34;;;;;;;20.50;18.38;;;;;;;-2.13;100.00;103048.66;10036870;29;20048;-68
2024/01/12 02:55:31;;;;;;;26.50;18.92;;;;;;;-2.10;100.00;103052.84;10034285;29;20047;-70
2024/01/12 03:00:30;;;;;;;27.80;19.10;;;;;;;-2.07;100.00;103057.84;10044515;29;20051;-70
2024/01/12 03:05:27;;;;;;;25.67;19.40;;;;;;;-2.23;100.00;103034.63;10034089;29;20043;-70
2024/01/12 03:10:23;;;;;;;20.52;18.33;;;;;;;-2.23;100.00;103042.66;10040621;29;20051;-71
2024/01/12 03:15:20;;;;;;;22.75;19.08;;;;;;;-2.11;100.00;103040.47;10029189;29;20047;-71
2024/01/12 03:20:17;;;;;;;21.00;18.83;;;;;;;-2.14;100.00;103035.44;10031464;29;20409;-70
2024/01/12 03:25:13;;;;;;;20.42;18.38;;;;;;;-2.13;100.00;103042.47;10032493;29;20499;-70
2024/01/12 03:30:10;;;;;;;21.73;19.17;;;;;;;-2.21;100.00;103029.09;10039236;29;20052;-71
2024/01/12 03:35:07;;;;;;;23.17;18.90;;;;;;;-2.10;100.00;103015.31;10037828;29;20048;-71
2024/01/12 03:40:04;;;;;;;22.40;19.25;;;;;;;-2.22;100.00;103017.56;10042048;29;20494;-71
2024/01/12 03:45:01;;;;;;;21.13;18.92;;;;;;;-2.18;100.00;103009.97;10044746;29;20056;-68
2024/01/12 03:49:58;;;;;;;29.48;19.60;;;;;;;-2.34;100.00;103013.63;10041365;29;20130;-69
2024/01/12 03:54:54;;;;;;;40.22;19.10;;;;;;;-2.39;100.00;103022.19;10043236;28;20066;-67
2024/01/12 03:59:51;;;;;;;34.83;19.80;;;;;;;-2.51;100.00;103012.84;10034639;29;20055;-69
2024/01/12 04:04:47;;;;;;;37.53;20.63;;;;;;;-2.59;100.00;103002.16;10033698;29;20051;-70
2024/01/12 04:09:44;;;;;;;22.20;19.90;;;;;;;-2.60;100.00;103003.16;10027986;29;20084;-70
2024/01/12 04:14:45;;;;;;;23.17;20.25;;;;;;;-2.52;100.00;102994.28;10030628;29;20519;-68
2024/01/12 04:19:42;;;;;;;22.52;19.30;;;;;;;-2.51;100.00;102996.75;10029086;29;20588;-70
2024/01/12 04:24:38;;;;;;;39.35;19.77;;;;;;;-2.61;100.00;102991.63;10040976;28;20419;-70
2024/01/12 04:29:35;;;;;;;26.30;20.02;;;;;;;-2.62;100.00;102989.13;10033298;29;20134;-70
2024/01/12 04:34:35;;;;;;;22.10;19.52;;;;;;;-2.75;100.00;102995.84;10025251;29;20047;-69
2024/01/12 04:39:32;;;;;;;21.90;19.70;;;;;;;-2.61;100.00;102982.75;10038249;29;20059;-69
2024/01/12 04:44:29;;;;;;;21.30;19.08;;;;;;;-2.68;100.00;102989.81;10032021;29;20051;-70
2024/01/12 04:49:26;;;;;;;26.33;21.92;;;;;;;-2.85;100.00;102989.88;10036377;29;20464;-70
2024/01/12 04:54:22;;;;;;;29.38;20.35;;;;;;;-2.82;100.00;102989.53;10048151;28;20062;-69
2024/01/12 04:59:19;;;;;;;26.88;20.15;;;;;;;-2.94;100.00;102990.91;10043928;29;20051;-70
2024/01/12 05:04:15;;;;;;;21.80;19.45;;;;;;;-2.89;100.00;102991.22;10040277;29;20052;-71
2024/01/12 05:09:12;;;;;;;25.23;20.30;;;;;;;-2.93;100.00;102997.91;10035066;29;20056;-69
2024/01/12 05:14:08;;;;;;;23.63;19.38;;;;;;;-2.96;100.00;102998.28;10036985;29;20048;-70
2024/01/12 05:19:05;;;;;;;20.95;18.77;;;;;;;-3.10;100.00;102991.78;10038468;29;20063;-71
2024/01/12 05:24:02;;;;;;;24.67;20.17;;;;;;;-3.09;100.00;102993.44;10033547;28;20075;-71
2024/01/12 05:28:58;;;;;;;24.08;20.83;;;;;;;-2.96;100.00;102987.56;10037068;29;20415;-71
2024/01/12 05:33:55;;;;;;;28.65;20.17;;;;;;;-3.09;100.00;102997.97;10032478;29;20059;-75
2024/01/12 05:38:51;;;;;;;24.25;18.35;;;;;;;-2.99;100.00;102993.28;10046172;29;20087;-74
2024/01/12 05:43:48;;;;;;;21.52;19.35;;;;;;;-3.18;100.00;102981.09;10040223;29;20139;-75
2024/01/12 05:48:45;;;;;;;26.70;18.33;;;;;;;-3.24;100.00;102993.31;10037800;29;20626;-74
2024/01/12 05:53:42;;;;;;;20.85;18.73;;;;;;;-3.25;100.00;102993.47;10056088;29;20055;-73
2024/01/12 05:58:41;;;;;;;21.38;19.08;;;;;;;-3.25;100.00;103009.53;10030648;29;20444;-73
2024/01/12 06:03:38;;;;;;;30.77;19.88;;;;;;;-3.41;100.00;103010.41;10038025;29;20062;-72
2024/01/12 06:08:34;;;;;;;19.95;18.05;;;;;;;-3.37;100.00;103011.72;10027973;29;20055;-71
2024/01/12 06:13:31;;;;;;;26.20;19.17;;;;;;;-3.56;100.00;103014.75;10035276;29;20159;-71
2024/01/12 06:18:28;;;;;;;22.77;20.52;;;;;;;-3.34;100.00;103011.41;10027908;29;20064;-71
2024/01/12 06:23:25;;;;;;;22.67;20.33;;;;;;;-3.43;100.00;103012.41;10036798;29;20741;-72
2024/01/12 06:28:21;;;;;;;24.77;21.67;;;;;;;-3.75;100.00;103016.75;10041949;29;20044;-71
2024/01/12 06:33:18;;;;;;;26.23;21.58;;;;;;;-3.91;100.00;103011.38;10048329;29;20048;-70
2024/01/12 06:38:15;;;;;;;24.75;20.60;;;;;;;-3.88;100.00;103019.91;10044655;29;20075;-71
2024/01/12 06:43:11;;;;;;;25.58;20.02;;;;;;;-3.92;100.00;103017.72;10033780;29;20079;-72
2024/01/12 06:48:08;;;;;;;27.60;21.52;;;;;;;-3.71;100.00;103026.13;10035261;29;20066;-71
2024/01/12 06:53:08;;;;;;;26.58;20.92;;;;;;;-3.70;100.00;103022.44;10051169;29;20096;-70
2024/01/12 06:58:05;;;;;;;24.10;20.50;;;;;;;-3.84;100.00;103017.75;10040987;29;20389;-70
2024/01/12 07:03:01;;;;;;;33.47;23.70;;;;;;;-3.80;100.00;103016.41;10040426;29;20055;-72
2024/01/12 07:07:58;;;;;;;27.98;21.77;;;;;;;-3.55;100.00;103008.38;10036694;29;20044;-71
2024/01/12 07:12:55;;;;;;;28.65;19.95;;;;;;;-3.58;100.00;103003.38;10034622;29;20426;-71
2024/01/12 07:17:51;;;;;;;28.38;21.55;;;;;;;-3.43;100.00;102985.66;10038780;29;20044;-72
2024/01/12 07:22:48;;;;;;;34.28;22.13;;;;;;;-3.36;100.00;102997.34;10042313;29;20124;-71
2024/01/12 07:27:44;;;;;;;28.08;19.50;;;;;;;-3.22;100.00;102988.63;10023585;29;20051;-71
2024/01/12 07:32:42;;;;;;;27.83;20.13;;;;;;;-3.12;100.00;102966.22;10039688;29;20358;-72
2024/01/12 07:37:39;;;;;;;26.95;19.58;;;;;;;-3.02;100.00;102965.00;10031953;29;20047;-71
2024/01/12 07:42:37;;;;;;;32.40;20.25;;;;;;;-2.92;100.00;102961.28;10020984;29;20399;-71
2024/01/12 07:47:34;;;;;;;24.55;19.42;;;;;;;-2.83;100.00;102939.69;10019345;29;20071;-71
2024/01/12 07:52:31;;;;;;;24.52;19.02;;;;;;;-2.91;100.00;102910.25;10026597;29;20051;-71
2024/01/12 07:57:28;;;;;;;24.33;18.58;;;;;;;-2.87;100.00;102908.91;10036578;29;20040;-71
2024/01/12 08:02:24;;;;;;;29.08;16.90;;;;;;;-2.83;100.00;102888.81;10042327;28;20043;-71
2024/01/12 08:07:21;;;;;;;35.10;18.20;;;;;;;-2.75;100.00;102882.56;10027826;29;20503;-70
2024/01/12 08:12:18;;;;;;;24.00;17.52;;;;;;;-2.75;100.00;102878.03;10036830;29;20055;-72
2024/01/12 08:17:14;;;;;;;29.52;16.52;;;;;;;-2.76;100.00;102864.84;10039265;29;20459;-72
2024/01/12 08:22:11;;;;;;;29.83;16.45;;;;;;;-2.58;100.00;102851.16;10029583;29;20059;-70
2024/01/12 08:27:07;;;;;;;18.65;15.27;;;;;;;-2.40;100.00;102846.34;10043614;29;20035;-71
2024/01/12 08:32:04;;;;;;;35.30;16.15;;;;;;;-2.25;100.00;102850.91;10032927;29;20529;-72
2024/01/12 08:37:01;;;;;;;27.65;16.30;;;;;;;-2.14;100.00;102831.72;10026201;29;20751;-71
2024/01/12 08:41:57;;;;;;;21.42;14.90;;;;;;;-2.02;100.00;102824.94;10040004;29;20142;-72
2024/01/12 08:46:54;;;;;;;25.17;15.80;;;;;;;-1.82;100.00;102824.38;10038057;29;20058;-70
2024/01/12 08:51:51;;;;;;;29.55;15.98;;;;;;;-1.73;100.00;102808.03;10040594;29;20051;-70
2024/01/12 08:56:48;;;;;;;37.95;18.77;;;;;;;-1.71;100.00;102794.44;10030318;29;20043;-71
2024/01/12 09:01:44;;;;;;;24.13;16.00;;;;;;;-1.52;100.00;102788.50;10031933;29;20755;-70
2024/01/12 09:06:41;;;;;;;23.42;15.70;;;;;;;-1.28;100.00;102789.22;10043805;29;20373;-71
2024/01/12 09:11:37;;;;;;;42.03;17.52;;;;;;;-1.35;100.00;102799.03;10043976;28;20078;-70
2024/01/12 09:16:34;;;;;;;33.05;16.52;;;;;;;-1.24;100.00;102795.88;10030988;29;20435;-70
2024/01/12 09:21:30;;;;;;;41.95;17.30;;;;;;;-1.12;100.00;102775.56;10038643;29;20043;-71
2024/01/12 09:26:27;;;;;;;33.47;16.25;;;;;;;-1.00;100.00;102767.00;10024879;28;20068;-72
2024/01/12 09:31:24;;;;;;;41.22;16.77;;;;;;;-0.99;100.00;102761.47;10028963;29;20445;-71
2024/01/12 09:36:20;;;;;;;29.73;16.20;;;;;;;-0.85;100.00;102767.81;10042628;29;20733;-71
2024/01/12 09:41:27;;;;;;;30.88;15.90;;;;;;;-0.79;100.00;102767.06;10026096;29;20051;-70
2024/01/12 09:46:28;;;;;;;24.33;15.13;;;;;;;-0.72;100.00;102784.06;10028961;29;20056;-71
2024/01/12 09:51:27;;;;;;;25.77;14.77;;;;;;;-0.70;100.00;102782.00;10032988;29;20043;-71
2024/01/12 09:56:24;;;;;;;24.33;14.48;;;;;;;-0.66;100.00;102777.91;10025671;29;20043;-71
2024/01/12 10:01:34;;;;;;;27.00;15.18;;;;;;;-0.53;100.00;102771.84;10029422;29;20043;-70
2024/01/12 10:06:32;;;;;;;25.98;16.02;;;;;;;-0.61;100.00;102779.19;10030913;29;20048;-70
2024/01/12 10:11:29;;;;;;;29.48;16.33;;;;;;;-0.60;100.00;102786.22;10034162;29;20052;-71
2024/01/12 10:16:31;;;;;;;30.02;16.33;;;;;;;-0.44;100.00;102781.44;10027911;29;20127;-70
2024/01/12 10:21:27;;;;;;;34.03;17.67;;;;;;;-0.36;100.00;102767.00;10044596;29;20528;-71
2024/01/12 10:26:24;;;;;;;25.00;16.02;;;;;;;-0.36;100.00;102756.25;10041815;28;20403;-71
2024/01/12 10:31:22;;;;;;;26.15;17.10;;;;;;;-0.28;100.00;102731.94;10046561;29;20051;-71
2024/01/12 10:36:21;;;;;;;31.00;16.83;;;;;;;-0.33;100.00;102734.34;10045058;29;20520;-71
2024/01/12 10:41:24;;;;;;;29.88;16.13;;;;;;;-0.26;100.00;102716.41;10047423;29;20052;-72
2024/01/12 10:46:47;;;;;;;25.83;17.15;;;;;;;-0.26;100.00;102719.09;10041350;29;20083;-71
2024/01/12 10:51:53;;;;;;;24.83;14.75;;;;;;;-0.19;100.00;102707.56;10037056;29;20082;-71
2024/01/12 10:56:49;;;;;;;21.20;15.38;;;;;;;-0.24;100.00;102710.84;10035585;28;20047;-72
2024/01/12 11:01:47;;;;;;;29.17;15.20;;;;;;;-0.07;100.00;102708.66;10021400;29;20056;-69
2024/01/12 11:06:48;;;;;;;23.42;16.23;;;;;;;-0.08;100.00;102699.78;10025977;29;20047;-71
2024/01/12 11:11:53;;;;;;;24.17;15.35;;;;;;;0.02;100.00;102683.28;10039198;29;20530;-71
2024/01/12 11:16:50;;;;;;;28.02;15.82;;;;;;;-0.01;100.00;102681.00;10034010;29;20044;-72
2024/01/12 11:21:47;;;;;;;27.85;14.60;;;;;;;0.10;100.00;102675.06;10027066;29;20059;-72
2024/01/12 11:26:44;;;;;;;20.80;15.75;;;;;;;0.09;100.00;102668.00;10020153;29;20520;-71
2024/01/12 11:31:51;;;;;;;24.63;14.70;;;;;;;0.11;100.00;102679.38;10019183;29;20051;-72
2024/01/12 11:36:59;;;;;;;25.17;16.40;;;;;;;0.18;100.00;102661.41;10027473;29;20055;-71
2024/01/12 11:41:56;;;;;;;26.45;14.77;;;;;;;0.31;100.00;102649.88;10030408;29;20059;-72
2024/01/12 11:46:52;;;;;;;31.67;16.45;;;;;;;0.41;100.00;102654.88;10041985;29;20574;-72
2024/01/12 11:51:49;;;;;;;25.42;15.88;;;;;;;0.47;100.00;102648.69;10034636;29;20051;-71
2024/01/12 11:56:46;;;;;;;27.35;16.20;;;;;;;0.38;100.00;102644.53;10040732;29;20051;-71
2024/01/12 12:01:42;;;;;;;29.85;17.00;;;;;;;0.55;100.00;102643.13;10031537;29;20079;-72
2024/01/12 12:06:40;;;;;;;21.73;15.85;;;;;;;0.48;100.00;102644.97;10023452;29;20047;-72
2024/01/12 12:11:37;;;;;;;27.52;15.75;;;;;;;0.57;100.00;102641.06;10026609;29;20670;-71
2024/01/12 12:16:34;;;;;;;34.55;15.57;;;;;;;0.66;100.00;102630.09;10040299;29;20044;-70
2024/01/12 12:21:31;;;;;;;24.77;15.75;;;;;;;0.75;100.00;102618.94;10034387;29;20051;-71
2024/01/12 12:26:28;;;;;;;30.92;17.83;;;;;;;0.82;100.00;102618.94;10036062;29;20130;-71
2024/01/12 12:31:27;;;;;;;31.20;17.60;;;;;;;0.80;100.00;102610.25;10032870;29;20063;-71
2024/01/12 12:36:24;;;;;;;28.80;16.17;;;;;;;0.92;100.00;102605.06;10036756;29;20540;-71
2024/01/12 12:41:23;;;;;;;28.45;17.50;;;;;;;0.96;100.00;102593.66;10029739;29;20101;-71
2024/01/12 12:46:21;;;;;;;30.52;16.92;;;;;;;1.08;100.00;102585.78;10035649;29;20055;-71
2024/01/12 12:51:18;;;;;;;31.77;17.55;;;;;;;1.14;100.00;102578.72;10031914;29;20052;-71
2024/01/12 12:56:14;;;;;;;32.30;18.48;;;;;;;1.04;100.00;102590.78;10026711;29;20048;-72
2024/01/12 13:01:11;;;;;;;33.53;18.30;;;;;;;1.28;100.00;102588.47;10036989;29;20046;-71
2024/01/12 13:06:07;;;;;;;28.35;17.80;;;;;;;1.28;100.00;102580.38;10038444;29;20478;-70
2024/01/12 13:11:04;;;;;;;34.78;17.38;;;;;;;1.31;100.00;102563.78;10030341;29;20138;-70
2024/01/12 13:16:03;;;;;;;31.50;17.67;;;;;;;1.43;100.00;102567.47;10032414;29;20052;-71
2024/01/12 13:21:00;;;;;;;26.83;17.40;;;;;;;1.46;100.00;102572.47;10022301;29;20533;-72
2024/01/12 13:25:57;;;;;;;31.75;18.92;;;;;;;1.40;100.00;102573.31;10031114;29;20098;-72
2024/01/12 13:30:53;;;;;;;25.95;17.25;;;;;;;1.57;100.00;102556.66;10023020;29;20047;-68
2024/01/12 13:35:50;;;;;;;34.22;19.30;;;;;;;1.49;100.00;102567.69;9980391;29;20063;-72
2024/01/12 13:40:46;;;;;;;30.98;17.08;;;;;;;1.61;100.00;102584.88;9980683;29;20063;-72
2024/01/12 13:45:43;;;;;;;35.85;19.08;;;;;;;1.61;100.00;102579.47;9951020;29;20049;-73
2024/01/12 13:50:40;;;;;;;38.70;18.85;;;;;;;1.59;100.00;102581.56;9965785;29;20424;-72
2024/01/12 13:55:37;;;;;;;31.95;17.90;;;;;;;1.65;100.00;102580.72;9973153;29;20139;-72
2024/01/12 14:00:33;;;;;;;26.52;17.45;;;;;;;1.70;100.00;102575.50;9993493;29;20115;-70
2024/01/12 14:05:30;;;;;;;25.73;16.55;;;;;;;1.79;100.00;102571.53;9994029;29;20518;-71
2024/01/12 14:10:27;;;;;;;25.85;18.10;;;;;;;1.85;100.00;102564.44;9983302;29;20047;-72
2024/01/12 14:15:24;;;;;;;26.83;15.93;;;;;;;1.79;100.00;102566.13;9993115;29;20071;-71
2024/01/12 14:20:21;;;;;;;25.80;16.10;;;;;;;1.83;100.00;102578.16;10004770;29;20091;-71
2024/01/12 14:25:18;;;;;;;30.92;16.90;;;;;;;1.80;100.00;102578.56;9947055;29;20053;-71
2024/01/12 14:30:15;;;;;;;32.17;15.88;;;;;;;1.74;100.00;102583.97;9952843;29;20412;-70
2024/01/12 14:35:11;;;;;;;23.20;14.95;;;;;;;1.72;100.00;102575.28;9994863;29;20048;-69
2024/01/12 14:40:09;;;;;;;27.23;16.35;;;;;;;1.88;100.00;102575.66;9992237;29;20079;-71
2024/01/12 14:45:08;;;;;;;23.60;16.30;;;;;;;1.82;100.00;102571.09;9985789;29;20063;-72
2024/01/12 14:50:05;;;;;;;23.65;15.25;;;;;;;1.71;100.00;102563.66;9986638;29;20052;-72
2024/01/12 14:55:01;;;;;;;28.27;16.25;;;;;;;1.78;100.00;102550.16;9981345;29;20104;-73
2024/01/12 15:00:00;;;;;;;26.08;15.05;;;;;;;1.66;100.00;102545.44;9975527;29;20054;-70
2024/01/12 15:05:01;;;;;;;32.88;14.50;;;;;;;1.63;100.00;102539.66;9991082;29;20052;-71
2024/01/12 15:09:57;;;;;;;29.27;14.05;;;;;;;1.59;100.00;102538.41;9991720;29;20052;-70
2024/01/12 15:14:55;;;;;;;25.83;13.95;;;;;;;1.70;100.00;102537.75;10006761;29;20073;-72
2024/01/12 15:19:52;;;;;;;25.20;12.90;;;;;;;1.64;100.00;102535.91;9991134;29;20135;-71
2024/01/12 15:24:48;;;;;;;28.10;12.55;;;;;;;1.61;100.00;102518.28;9988791;29;20052;-70
2024/01/12 15:29:45;;;;;;;27.02;12.25;;;;;;;1.67;100.00;102519.28;9986324;29;20060;-72
2024/01/12 15:34:41;;;;;;;25.17;13.00;;;;;;;1.63;100.00;102528.88;9987381;29;20055;-70
2024/01/12 15:39:40;;;;;;;24.10;13.57;;;;;;;1.64;100.00;102525.13;9988764;29;20060;-71
2024/01/12 15:44:37;;;;;;;23.48;13.20;;;;;;;1.65;100.00;102518.69;9985765;29;20095;-71
2024/01/12 15:49:33;;;;;;;23.05;12.70;;;;;;;1.65;100.00;102510.59;9993738;29;20047;-71
2024/01/12 15:54:30;;;;;;;23.65;11.85;;;;;;;1.71;100.00;102519.69;9987123;29;20047;-72
2024/01/12 15:59:27;;;;;;;25.63;12.55;;;;;;;1.74;100.00;102520.13;9990235;29;20048;-72
2024/01/12 16:04:23;;;;;;;19.17;12.43;;;;;;;1.72;100.00;102522.19;9990485;29;20081;-71
2024/01/12 16:09:20;;;;;;;19.52;12.82;;;;;;;1.82;100.00;102525.25;9988333;29;20041;-72
2024/01/12 16:14:16;;;;;;;25.58;12.93;;;;;;;1.89;100.00;102528.72;9989883;29;20064;-72
2024/01/12 16:19:13;;;;;;;25.67;12.00;;;;;;;1.93;100.00;102547.19;9988980;29;20048;-72
2024/01/12 16:24:11;;;;;;;17.42;11.60;;;;;;;2.03;100.00;102550.25;9990851;29;20428;-69
2024/01/12 16:29:08;;;;;;;18.92;11.27;;;;;;;2.05;100.00;102548.19;9976374;29;20040;-72
2024/01/12 16:34:07;;;;;;;17.08;10.57;;;;;;;2.08;100.00;102537.75;9974692;29;20544;-73
2024/01/12 16:39:04;;;;;;;25.17;11.20;;;;;;;2.07;100.00;102556.88;9986636;29;20066;-71
2024/01/12 16:44:01;;;;;;;26.75;12.45;;;;;;;2.12;100.00;102562.47;9998078;29;20062;-72
2024/01/12 16:48:57;;;;;;;18.70;10.15;;;;;;;2.11;100.00;102566.19;9989169;29;20048;-72
2024/01/12 16:53:54;;;;;;;17.80;11.13;;;;;;;2.10;100.00;102556.44;9992242;29;20067;-72
2024/01/12 16:58:51;;;;;;;22.48;10.10;;;;;;;2.14;100.00;102562.25;9988450;29;20045;-72
2024/01/12 17:03:47;;;;;;;18.13;11.32;;;;;;;2.12;100.00;102557.06;9993129;29;20405;-72
2024/01/12 17:08:44;;;;;;;19.70;10.80;;;;;;;2.14;100.00;102546.88;10000230;29;20043;-71
2024/01/12 17:13:40;;;;;;;19.92;10.82;;;;;;;2.16;100.00;102555.59;9986311;29;20044;-72
2024/01/12 17:18:37;;;;;;;20.38;10.48;;;;;;;2.18;100.00;102553.50;9999441;29;20055;-72
2024/01/12 17:23:33;;;;;;;20.67;10.10;;;;;;;2.14;100.00;102548.75;10000836;29;20079;-72
2024/01/12 17:28:30;;;;;;;19.75;10.38;;;;;;;2.14;100.00;102546.88;9994955;29;20066;-72
2024/01/12 17:33:28;;;;;;;19.52;10.45;;;;;;;2.18;100.00;102542.72;10003623;29;20424;-73
2024/01/12 17:38:24;;;;;;;26.08;10.50;;;;;;;2.17;100.00;102541.03;10018909;29;20067;-71
2024/01/12 17:43:21;;;;;;;19.17;9.80;;;;;;;2.16;100.00;102533.16;10006290;29;20068;-73
2024/01/12 17:48:17;;;;;;;18.60;9.93;;;;;;;2.14;100.00;102530.69;10007259;29;20051;-72
2024/01/12 17:53:14;;;;;;;19.95;10.45;;;;;;;2.17;100.00;102529.44;9996264;29;20055;-72
2024/01/12 17:58:11;;;;;;;14.88;9.70;;;;;;;2.15;100.00;102529.63;9995272;29;20044;-69
2024/01/12 18:03:08;;;;;;;14.27;9.38;;;;;;;2.20;100.00;102524.41;10003422;29;20052;-72
2024/01/12 18:08:05;;;;;;;16.63;9.77;;;;;;;2.15;100.00;102532.31;10010352;29;20052;-72
2024/01/12 18:13:01;;;;;;;10.23;9.20;;;;;;;2.22;100.00;102522.31;9999234;29;20045;-72
2024/01/12 18:17:58;;;;;;;14.00;9.63;;;;;;;2.19;100.00;102513.84;10001713;29;20284;-72
2024/01/12 18:22:54;;;;;;;14.40;9.05;;;;;;;2.24;100.00;102522.94;9993102;29;20052;-72
2024/01/12 18:27:52;;;;;;;10.77;9.38;;;;;;;2.24;100.00;102525.63;10007499;29;20047;-72
2024/01/12 18:32:48;;;;;;;18.83;9.48;;;;;;;2.27;100.00;102525.19;10003407;29;20100;-72
2024/01/12 18:37:45;;;;;;;10.60;9.52;;;;;;;2.28;100.00;102520.63;10000724;29;20207;-70
2024/01/12 18:42:41;;;;;;;20.35;10.18;;;;;;;2.28;100.00;102518.75;10003321;29;20111;-71
2024/01/12 18:47:39;;;;;;;16.17;9.40;;;;;;;2.29;100.00;102515.00;9992037;29;20052;-71
2024/01/12 18:52:37;;;;;;;18.33;10.13;;;;;;;2.28;100.00;102510.66;10000622;29;20495;-72
2024/01/12 18:57:34;;;;;;;21.40;10.35;;;;;;;2.24;100.00;102504.03;9993714;29;20078;-71
2024/01/12 19:02:30;;;;;;;14.25;10.50;;;;;;;2.27;100.00;102495.50;9995865;29;20048;-72
2024/01/12 19:07:27;;;;;;;17.88;9.60;;;;;;;2.27;100.00;102509.00;10001890;29;20052;-72
2024/01/12 19:12:24;;;;;;;25.08;10.40;;;;;;;2.25;100.00;102500.31;9995281;29;20050;-72
2024/01/12 19:17:21;;;;;;;18.92;9.57;;;;;;;2.27;100.00;102492.78;10017954;29;20064;-72
2024/01/12 19:22:17;;;;;;;16.80;9.90;;;;;;;2.26;100.00;102480.34;9980433;29;20115;-71
2024/01/12 19:27:14;;;;;;;17.85;10.18;;;;;;;2.24;100.00;102471.66;9990702;29;20570;-71
2024/01/12 19:32:12;;;;;;;13.23;9.05;;;;;;;2.24;100.00;102466.25;9984004;29;20416;-72
2024/01/12 19:37:09;;;;;;;16.90;9.90;;;;;;;2.25;100.00;102462.53;9984720;29;20052;-73
2024/01/12 19:42:06;;;;;;;21.50;10.38;;;;;;;2.25;100.00;102462.53;9980920;29;20063;-73
2024/01/12 19:47:02;;;;;;;16.98;10.35;;;;;;;2.27;100.00;102465.81;9981271;29;20079;-72
2024/01/12 19:51:59;;;;;;;19.38;10.20;;;;;;;2.35;100.00;102458.50;9993197;29;20096;-73
2024/01/12 19:56:55;;;;;;;10.38;9.30;;;;;;;2.35;100.00;102453.09;9981370;29;20052;-73
2024/01/12 20:01:53;;;;;;;19.30;9.38;;;;;;;2.35;100.00;102456.63;9968555;29;20079;-74
2024/01/12 20:06:50;;;;;;;11.25;9.63;;;;;;;2.47;100.00;102445.94;9991099;29;20052;-73
2024/01/12 20:11:46;;;;;;;22.75;9.95;;;;;;;2.38;100.00;102449.97;9978468;29;20052;-73
2024/01/12 20:16:43;;;;;;;16.45;10.57;;;;;;;2.47;100.00;102441.34;9976303;29;20109;-71
2024/01/12 20:21:42;;;;;;;16.52;9.70;;;;;;;2.42;100.00;102432.28;9979120;29;20048;-68
2024/01/12 20:26:38;;;;;;;17.20;9.85;;;;;;;2.43;100.00;102439.31;9987119;29;20473;-69
2024/01/12 20:31:35;;;;;;;14.80;10.07;;;;;;;2.32;100.00;102435.44;9978168;29;20043;-69
2024/01/12 20:36:32;;;;;;;13.70;10.73;;;;;;;2.43;100.00;102436.63;9989145;29;20056;-70
2024/01/12 20:41:28;;;;;;;15.00;10.45;;;;;;;2.40;100.00;102431.66;9985360;29;20147;-70
2024/01/12 20:46:25;;;;;;;16.52;10.70;;;;;;;2.38;100.00;102429.19;9984018;29;20048;-70
2024/01/12 20:51:22;;;;;;;14.23;9.23;;;;;;;2.39;100.00;102430.00;9999485;29;20084;-70
2024/01/12 20:56:18;;;;;;;15.15;9.65;;;;;;;2.37;100.00;102440.19;9991215;29;20048;-71
2024/01/12 21:01:15;;;;;;;17.77;9.38;;;;;;;2.36;100.00;102427.75;9989025;29;20048;-71
2024/01/12 21:06:11;;;;;;;13.50;8.50;;;;;;;2.40;100.00;102431.66;9989254;29;20650;-71
2024/01/12 21:11:08;;;;;;;14.00;8.82;;;;;;;2.44;100.00;102416.69;9993595;29;20073;-71
2024/01/12 21:16:08;;;;;;;18.38;10.05;;;;;;;2.47;100.00;102421.63;9985704;29;20052;-69
2024/01/12 21:21:04;;;;;;;20.10;9.10;;;;;;;2.42;100.00;102416.91;9995476;29;20054;-69
2024/01/12 21:26:01;;;;;;;15.00;8.95;;;;;;;2.48;100.00;102412.47;9992540;29;20048;-70
2024/01/12 21:30:57;;;;;;;17.02;10.40;;;;;;;2.37;100.00;102416.75;9981033;29;20056;-71
2024/01/12 21:35:54;;;;;;;17.05;9.68;;;;;;;2.36;100.00;102408.84;9986215;29;20130;-70
2024/01/12 21:40:51;;;;;;;18.85;9.38;;;;;;;2.35;100.00;102407.22;9991806;29;20048;-71
2024/01/12 21:45:47;;;;;;;18.33;10.15;;;;;;;2.23;100.00;102407.94;9993015;29;20637;-69
2024/01/12 21:50:44;;;;;;;14.10;9.80;;;;;;;2.27;100.00;102401.03;9997371;29;20048;-69
2024/01/12 21:55:40;;;;;;;11.00;9.10;;;;;;;2.22;100.00;102381.97;9993840;29;20107;-70
2024/01/12 22:00:37;;;;;;;25.38;10.50;;;;;;;2.28;100.00;102370.31;9986239;29;20059;-68
2024/01/12 22:05:33;;;;;;;17.95;10.45;;;;;;;2.23;100.00;102353.94;9995175;29;20055;-70
2024/01/12 22:10:30;;;;;;;15.10;8.80;;;;;;;2.17;100.00;102349.44;9992434;29;20119;-68
2024/01/12 22:15:26;;;;;;;11.70;8.52;;;;;;;2.16;100.00;102328.91;9991762;29;20067;-69